Time;durP1;ratioP1;P1;durP2;ratioP2;P2;SDS_P1;SDS_P2;PMS_P1;PMS_P2;Temp;Humidity;BMP_temperature;BMP_pressure;BME280_temperature;BME280_humidity;BME280_pressure;Samples;Min_cycle;Max_cycle;Signal;HPM_P1;HPM_P2
2023/09/21 00:02:24;;;;;;;9.05;5.93;;;;;;;17.54;nan;99371.66;5117786;27;20149;-71
2023/09/21 00:04:52;;;;;;;11.90;6.80;;;;;;;17.55;nan;99346.41;5098324;27;20153;-74
2023/09/21 00:07:18;;;;;;;12.80;7.22;;;;;;;17.53;nan;99353.81;5117979;27;20042;-70
2023/09/21 00:09:44;;;;;;;11.60;6.57;;;;;;;17.54;nan;99352.78;5117166;27;20057;-69
2023/09/21 00:12:10;;;;;;;7.78;6.30;;;;;;;17.55;nan;99350.94;5117242;27;20039;-70
2023/09/21 00:14:37;;;;;;;8.65;6.00;;;;;;;17.53;nan;99374.53;5117270;27;20052;-71
2023/09/21 00:17:03;;;;;;;8.05;6.55;;;;;;;17.51;nan;99354.97;5117155;27;20516;-74
2023/09/21 00:19:28;;;;;;;8.18;6.38;;;;;;;17.53;nan;99358.34;5117925;27;20042;-72
2023/09/21 00:21:57;;;;;;;12.48;6.70;;;;;;;17.58;nan;99367.66;5098169;27;20050;-71
2023/09/21 00:24:24;;;;;;;10.93;6.57;;;;;;;17.56;nan;99358.88;5094984;27;20053;-72
2023/09/21 00:26:51;;;;;;;14.75;6.53;;;;;;;17.52;nan;99362.03;5106887;27;20043;-72
2023/09/21 00:29:16;;;;;;;9.70;6.40;;;;;;;17.47;nan;99370.63;5072077;27;20429;-72
2023/09/21 00:31:42;;;;;;;9.13;7.45;;;;;;;17.45;nan;99364.53;5100035;27;20050;-73
2023/09/21 00:34:08;;;;;;;9.70;6.88;;;;;;;17.45;nan;99372.63;5094111;27;20046;-71
2023/09/21 00:36:34;;;;;;;10.60;7.10;;;;;;;17.42;nan;99378.34;5091426;27;20066;-71
2023/09/21 00:39:01;;;;;;;11.55;7.28;;;;;;;17.42;nan;99395.34;5109034;27;20035;-73
2023/09/21 00:41:26;;;;;;;10.15;6.72;;;;;;;17.45;nan;99369.94;5097678;27;20052;-73
2023/09/21 00:43:52;;;;;;;12.65;7.47;;;;;;;17.44;nan;99360.16;5097638;27;20050;-70
2023/09/21 00:46:18;;;;;;;8.65;6.57;;;;;;;17.45;nan;99359.16;5115073;27;20039;-72
2023/09/21 00:48:45;;;;;;;12.10;6.85;;;;;;;17.48;nan;99372.31;5091435;27;20763;-72
2023/09/21 00:51:13;;;;;;;11.00;7.32;;;;;;;17.49;nan;99373.16;5093612;27;20061;-74
2023/09/21 00:53:40;;;;;;;12.18;7.07;;;;;;;17.48;nan;99368.78;5097616;27;20485;-75
2023/09/21 00:56:09;;;;;;;8.43;6.57;;;;;;;17.48;nan;99380.41;5097166;27;20050;-71
2023/09/21 00:58:36;;;;;;;11.40;6.57;;;;;;;17.48;nan;99371.47;5078387;27;20039;-72
2023/09/21 01:01:03;;;;;;;9.80;7.18;;;;;;;17.47;nan;99376.03;5077831;27;20039;-72
2023/09/21 01:03:29;;;;;;;11.85;7.32;;;;;;;17.42;nan;99368.41;5067225;27;20043;-73
2023/09/21 01:05:55;;;;;;;9.75;7.47;;;;;;;17.46;nan;99371.63;5098115;27;20484;-72
2023/09/21 01:08:28;;;;;;;8.50;6.70;;;;;;;17.47;nan;99386.78;5114439;27;20655;-75
2023/09/21 01:10:55;;;;;;;8.20;6.78;;;;;;;17.49;nan;99392.03;5117628;27;20054;-75
2023/09/21 01:13:20;;;;;;;12.45;7.15;;;;;;;17.47;nan;99380.56;5117589;27;20034;-74
2023/09/21 01:16:02;;;;;;;13.93;8.63;;;;;;;17.51;nan;99392.69;5097796;27;20053;-76
2023/09/21 01:18:27;;;;;;;12.15;7.53;;;;;;;17.47;nan;99397.56;5096820;27;20042;-70
2023/09/21 01:21:04;;;;;;;13.93;6.80;;;;;;;17.46;nan;99386.97;5085808;27;20400;-74
2023/09/21 01:23:36;;;;;;;9.55;6.50;;;;;;;17.41;nan;99387.41;5117449;27;20038;-74
2023/09/21 01:26:01;;;;;;;10.25;7.65;;;;;;;17.40;nan;99383.03;5086562;27;20057;-72
2023/09/21 01:28:29;;;;;;;12.13;8.05;;;;;;;17.39;nan;99405.59;5098019;27;20493;-73
2023/09/21 01:30:56;;;;;;;10.18;7.28;;;;;;;17.39;nan;99397.50;5086112;28;20061;-71
2023/09/21 01:33:23;;;;;;;9.65;7.13;;;;;;;17.40;nan;99407.28;5079378;27;20043;-76
2023/09/21 01:35:48;;;;;;;10.15;7.47;;;;;;;17.39;nan;99408.28;5096547;27;20532;-73
2023/09/21 01:38:14;;;;;;;9.50;7.20;;;;;;;17.38;nan;99409.31;5113159;27;20045;-70
2023/09/21 01:40:41;;;;;;;11.30;6.93;;;;;;;17.38;nan;99418.22;5095081;27;20039;-70
2023/09/21 01:43:11;;;;;;;11.68;7.10;;;;;;;17.38;nan;99401.22;5097306;27;20046;-71
2023/09/21 01:45:40;;;;;;;11.43;7.90;;;;;;;17.36;nan;99403.25;5096996;27;20047;-71
2023/09/21 01:48:10;;;;;;;10.23;7.30;;;;;;;17.35;nan;99412.31;5115722;27;20062;-70
2023/09/21 01:50:43;;;;;;;12.45;6.93;;;;;;;17.36;nan;99405.94;5091005;28;20050;-72
2023/09/21 01:53:13;;;;;;;13.25;7.43;;;;;;;17.35;nan;99421.25;5084054;27;20043;-73
2023/09/21 01:55:39;;;;;;;10.73;7.32;;;;;;;17.30;nan;99423.56;5097265;27;20065;-67
2023/09/21 01:58:06;;;;;;;10.13;7.28;;;;;;;17.28;nan;99413.94;5097344;27;20038;-65
2023/09/21 02:00:39;;;;;;;13.15;7.95;;;;;;;17.24;nan;99417.97;5086222;27;20042;-66
2023/09/21 02:03:12;;;;;;;13.77;7.68;;;;;;;17.20;nan;99414.72;5104285;27;20039;-65
2023/09/21 02:05:40;;;;;;;10.40;6.93;;;;;;;17.19;nan;99442.69;5087172;27;20042;-65
2023/09/21 02:08:07;;;;;;;12.43;7.57;;;;;;;17.18;nan;99402.41;5070581;27;20055;-65
2023/09/21 02:10:36;;;;;;;14.32;8.00;;;;;;;17.16;nan;99405.25;5104531;27;20054;-67
2023/09/21 02:13:05;;;;;;;10.07;7.30;;;;;;;17.15;nan;99410.84;5084644;27;20054;-67
2023/09/21 02:15:34;;;;;;;8.95;7.82;;;;;;;17.12;nan;99403.06;5104742;27;20039;-67
2023/09/21 02:18:02;;;;;;;10.90;7.30;;;;;;;17.06;nan;99407.22;5095258;27;20044;-67
2023/09/21 02:22:29;;;;;;;13.43;8.02;;;;;;;16.99;68.87;99407.00;4880592;27;80714;-67
2023/09/21 02:25:16;;;;;;;12.02;6.90;;;;;;;16.95;68.99;99419.06;5018662;28;20126;-67
2023/09/21 02:27:49;;;;;;;11.18;7.85;;;;;;;16.90;70.33;99409.78;5088409;28;20051;-69
2023/09/21 02:30:17;;;;;;;10.25;7.80;;;;;;;16.85;70.23;99418.31;5015925;27;20807;-74
2023/09/21 02:32:48;;;;;;;19.17;7.68;;;;;;;16.78;70.82;99419.09;5035503;28;20051;-75
2023/09/21 02:35:15;;;;;;;10.93;8.23;;;;;;;16.71;71.72;99432.31;5074253;28;20042;-77
2023/09/21 02:37:48;;;;;;;11.88;8.55;;;;;;;16.73;71.93;99424.94;5073485;28;20036;-76
2023/09/21 02:40:17;;;;;;;11.38;7.97;;;;;;;16.72;71.88;99423.25;5083053;28;20066;-74
2023/09/21 02:42:49;;;;;;;9.18;6.95;;;;;;;16.72;71.99;99428.63;5078909;28;20050;-77
2023/09/21 02:45:19;;;;;;;9.88;8.23;;;;;;;16.73;72.39;99424.09;5081979;28;20043;-77
2023/09/21 02:47:47;;;;;;;13.65;8.02;;;;;;;16.70;72.38;99431.47;5067688;28;20028;-77
2023/09/21 02:50:14;;;;;;;13.45;9.10;;;;;;;16.71;71.87;99424.25;5101126;28;20051;-77
2023/09/21 02:52:54;;;;;;;11.70;8.07;;;;;;;16.67;72.10;99429.09;5094512;28;20051;-75
2023/09/21 02:55:22;;;;;;;13.35;8.82;;;;;;;16.63;72.72;99419.63;5076435;28;20050;-77
2023/09/21 02:57:59;;;;;;;15.65;8.98;;;;;;;16.65;72.24;99438.31;5063502;28;20047;-76
2023/09/21 03:02:54;;;;;;;11.20;8.07;;;;;;;16.59;72.49;99433.53;5094152;28;20043;-74
2023/09/21 03:05:19;;;;;;;12.25;7.97;;;;;;;16.59;73.38;99441.63;5077743;28;20050;-74
2023/09/21 03:07:45;;;;;;;12.23;8.02;;;;;;;16.58;73.60;99442.59;5104014;28;20057;-75
2023/09/21 03:10:11;;;;;;;16.85;8.70;;;;;;;16.60;73.88;99435.19;5085178;28;20047;-77
2023/09/21 03:12:39;;;;;;;11.32;7.68;;;;;;;16.58;73.94;99453.38;5091704;28;20046;-77
2023/09/21 03:15:09;;;;;;;15.90;8.98;;;;;;;16.56;73.93;99450.84;5076044;28;20027;-78
2023/09/21 03:17:38;;;;;;;18.38;9.02;;;;;;;16.59;74.34;99450.50;5076954;28;20015;-76
2023/09/21 03:20:14;;;;;;;15.32;8.48;;;;;;;16.60;74.84;99484.50;5090196;28;20050;-74
2023/09/21 03:22:41;;;;;;;11.52;8.63;;;;;;;16.63;75.08;99464.53;5072262;28;20058;-75
2023/09/21 03:25:16;;;;;;;13.63;9.32;;;;;;;16.62;74.35;99454.78;5067483;28;20043;-78
2023/09/21 03:27:42;;;;;;;14.10;8.52;;;;;;;16.65;74.61;99454.47;5092290;28;20057;-77
2023/09/21 03:30:12;;;;;;;13.00;9.07;;;;;;;16.67;75.30;99457.88;5090263;28;20062;-74
2023/09/21 03:32:40;;;;;;;14.00;8.25;;;;;;;16.69;75.07;99462.09;5065743;28;20050;-75
2023/09/21 03:35:06;;;;;;;15.57;8.82;;;;;;;16.71;74.02;99453.84;5098783;28;20024;-77
2023/09/21 03:37:34;;;;;;;16.63;9.23;;;;;;;16.66;74.39;99483.09;5098961;28;20463;-77
2023/09/21 03:39:59;;;;;;;13.90;8.93;;;;;;;16.66;74.83;99466.94;5062867;28;20035;-78
2023/09/21 03:42:24;;;;;;;12.77;9.23;;;;;;;16.66;75.46;99461.56;5051721;28;20541;-76
2023/09/21 03:44:53;;;;;;;14.40;9.52;;;;;;;16.67;75.38;99455.19;5060123;28;20518;-76
2023/09/21 03:47:18;;;;;;;13.32;9.63;;;;;;;16.71;75.66;99448.47;5060307;28;20031;-78
2023/09/21 03:49:46;;;;;;;14.43;10.02;;;;;;;16.70;75.09;99462.97;5078557;28;20059;-71
2023/09/21 03:52:15;;;;;;;15.48;9.43;;;;;;;16.70;75.76;99468.34;5042230;28;20502;-73
2023/09/21 03:54:43;;;;;;;16.23;10.52;;;;;;;16.67;77.43;99468.63;5059150;28;20043;-75
2023/09/21 03:57:14;;;;;;;12.90;9.20;;;;;;;16.73;77.68;99477.94;5059571;28;20035;-74
2023/09/21 03:59:40;;;;;;;16.42;9.38;;;;;;;16.73;77.74;99451.00;5059204;28;20051;-75
2023/09/21 04:02:08;;;;;;;15.15;10.50;;;;;;;16.77;77.60;99490.94;5040705;28;20048;-75
2023/09/21 04:04:33;;;;;;;14.25;9.65;;;;;;;16.78;77.58;99481.03;5046536;28;20056;-73
2023/09/21 04:06:58;;;;;;;17.35;10.27;;;;;;;16.81;77.42;99480.72;5042435;28;20505;-74
2023/09/21 04:09:24;;;;;;;13.32;9.00;;;;;;;16.84;77.51;99481.25;5059233;28;20054;-74
2023/09/21 04:11:49;;;;;;;12.40;9.25;;;;;;;16.86;76.27;99505.34;5042461;28;20043;-76
2023/09/21 04:14:14;;;;;;;17.13;10.93;;;;;;;16.80;76.32;99479.03;5041929;28;20055;-75
2023/09/21 04:16:39;;;;;;;13.95;10.23;;;;;;;16.78;77.24;99492.66;5041723;28;20044;-74
2023/09/21 04:19:10;;;;;;;17.10;10.85;;;;;;;16.78;77.36;99503.41;5059773;28;20106;-75
2023/09/21 04:21:37;;;;;;;18.83;9.98;;;;;;;16.79;78.12;99498.88;5022466;28;20067;-74
2023/09/21 04:24:05;;;;;;;18.17;10.55;;;;;;;16.79;78.71;99490.78;5038837;28;20039;-75
2023/09/21 04:26:30;;;;;;;17.17;10.32;;;;;;;16.82;78.68;99493.16;5038818;28;20043;-75
2023/09/21 04:28:55;;;;;;;17.50;9.52;;;;;;;16.87;79.54;99502.50;5038793;28;20503;-76
2023/09/21 04:31:21;;;;;;;21.80;11.98;;;;;;;16.94;79.42;99503.56;5021184;28;20052;-72
2023/09/21 04:33:47;;;;;;;16.08;11.02;;;;;;;16.97;79.41;99511.34;5056737;28;20521;-73
2023/09/21 04:36:13;;;;;;;15.43;10.95;;;;;;;16.97;79.56;99495.19;5055356;28;20044;-75
2023/09/21 04:38:38;;;;;;;16.05;10.98;;;;;;;17.03;79.96;99521.50;5067998;28;20040;-74
2023/09/21 04:41:04;;;;;;;14.38;11.07;;;;;;;17.06;79.96;99513.09;5021783;28;20043;-75
2023/09/21 04:43:32;;;;;;;15.90;11.65;;;;;;;17.12;79.65;99510.81;5055944;28;20055;-76
2023/09/21 04:45:59;;;;;;;17.95;11.30;;;;;;;17.16;79.47;99520.25;5023273;28;20048;-74
2023/09/21 04:48:25;;;;;;;18.70;11.75;;;;;;;17.20;78.70;99509.03;5023658;28;20051;-74
2023/09/21 04:50:50;;;;;;;15.18;10.90;;;;;;;17.24;78.89;99536.50;5005329;28;20051;-76
2023/09/21 04:53:16;;;;;;;21.17;11.48;;;;;;;17.30;78.52;99509.78;5056561;28;20052;-74
2023/09/21 04:55:42;;;;;;;18.25;10.60;;;;;;;17.40;78.66;99531.25;5021976;28;20047;-75
2023/09/21 04:58:07;;;;;;;20.38;11.63;;;;;;;17.50;78.39;99513.13;5038466;28;20044;-74
2023/09/21 05:00:32;;;;;;;16.75;11.50;;;;;;;17.59;78.09;99535.63;5056719;28;20040;-72
2023/09/21 05:02:58;;;;;;;20.38;12.15;;;;;;;17.60;77.22;99518.47;5053214;28;20051;-76
2023/09/21 05:05:26;;;;;;;15.32;10.55;;;;;;;17.66;77.62;99521.38;5064238;28;20031;-73
2023/09/21 05:07:52;;;;;;;22.25;11.18;;;;;;;17.69;77.12;99515.69;5064164;28;20042;-74
2023/09/21 05:10:19;;;;;;;16.88;11.10;;;;;;;17.76;77.25;99522.13;5045841;28;20053;-73
2023/09/21 05:12:48;;;;;;;13.52;10.60;;;;;;;17.85;77.44;99492.50;5084265;28;20406;-75
2023/09/21 05:15:15;;;;;;;16.00;10.68;;;;;;;17.84;76.71;99523.19;5077992;28;20055;-74
2023/09/21 05:17:41;;;;;;;18.98;11.38;;;;;;;17.82;76.85;99525.22;5079002;28;20378;-73
2023/09/21 05:20:11;;;;;;;17.15;11.45;;;;;;;17.80;76.97;99538.00;5059353;28;20355;-75
2023/09/21 05:22:39;;;;;;;14.00;10.75;;;;;;;17.81;76.36;99528.91;5093626;28;20044;-72
2023/09/21 05:25:06;;;;;;;18.27;11.10;;;;;;;17.72;75.90;99520.75;5070190;28;20047;-73
2023/09/21 05:27:33;;;;;;;16.23;11.43;;;;;;;17.61;76.00;99534.44;5046908;28;20055;-73
2023/09/21 05:30:01;;;;;;;16.33;10.90;;;;;;;17.55;76.56;99540.47;5051713;28;20508;-72
2023/09/21 05:32:35;;;;;;;16.83;10.65;;;;;;;17.48;77.67;99542.13;5049038;28;20054;-72
2023/09/21 05:35:06;;;;;;;15.93;10.60;;;;;;;17.47;77.92;99559.28;5088355;28;20031;-73
2023/09/21 05:37:36;;;;;;;16.33;11.75;;;;;;;17.42;78.27;99548.97;5079210;28;20417;-72
2023/09/21 05:40:05;;;;;;;19.90;11.43;;;;;;;17.42;78.36;99540.03;5077370;28;20054;-73
2023/09/21 05:42:31;;;;;;;21.13;11.20;;;;;;;17.46;78.70;99544.13;5079699;28;20039;-74
2023/09/21 05:44:56;;;;;;;14.93;10.68;;;;;;;17.48;78.62;99555.59;5043066;28;20043;-74
2023/09/21 05:47:21;;;;;;;15.18;10.73;;;;;;;17.49;79.12;99562.69;5078131;28;20055;-73
2023/09/21 05:49:46;;;;;;;17.00;11.73;;;;;;;17.52;79.35;99548.03;5054653;28;20118;-74
2023/09/21 05:52:16;;;;;;;20.55;10.70;;;;;;;17.52;79.15;99545.31;5059611;28;20048;-73
2023/09/21 05:54:44;;;;;;;16.10;11.27;;;;;;;17.52;79.39;99551.56;5039302;28;20036;-73
2023/09/21 05:57:10;;;;;;;15.98;10.05;;;;;;;17.54;79.17;99554.97;5058625;28;20052;-73
2023/09/21 05:59:38;;;;;;;18.05;11.68;;;;;;;17.55;78.66;99551.25;5055787;28;20047;-73
2023/09/21 06:02:13;;;;;;;15.90;11.20;;;;;;;17.52;78.57;99556.09;5038399;28;20058;-74
2023/09/21 06:04:40;;;;;;;22.30;12.38;;;;;;;17.51;78.75;99560.66;5057377;28;20048;-74
2023/09/21 06:07:05;;;;;;;15.20;11.73;;;;;;;17.51;78.97;99584.06;5057854;28;20048;-74
2023/09/21 06:09:33;;;;;;;18.17;11.40;;;;;;;17.49;78.77;99564.53;5072112;28;20048;-75
2023/09/21 06:11:59;;;;;;;15.50;11.32;;;;;;;17.47;78.48;99575.47;5057437;28;20055;-75
2023/09/21 06:14:25;;;;;;;21.17;11.45;;;;;;;17.46;78.50;99568.38;5056568;28;20044;-76
2023/09/21 06:16:51;;;;;;;19.38;11.38;;;;;;;17.52;79.53;99578.53;5054823;28;20055;-76
2023/09/21 06:19:18;;;;;;;17.00;11.02;;;;;;;17.61;79.54;99545.22;5055307;28;20043;-76
2023/09/21 06:21:51;;;;;;;19.52;12.23;;;;;;;17.73;79.58;99572.81;5038937;28;20051;-74
2023/09/21 06:24:17;;;;;;;19.75;12.13;;;;;;;17.83;79.16;99597.88;5039262;28;20048;-75
2023/09/21 06:26:43;;;;;;;18.30;11.65;;;;;;;17.96;78.67;99582.09;5056759;28;20544;-75
2023/09/21 06:29:08;;;;;;;16.52;11.25;;;;;;;18.07;78.44;99578.28;5056732;28;20051;-74
2023/09/21 06:31:33;;;;;;;15.57;11.57;;;;;;;18.12;77.54;99592.16;5057490;28;20051;-71
2023/09/21 06:33:59;;;;;;;15.07;10.93;;;;;;;18.15;77.89;99589.16;5043088;28;20066;-72
2023/09/21 06:36:27;;;;;;;16.90;11.45;;;;;;;18.20;78.39;99615.63;5074568;28;20203;-73
2023/09/21 06:38:53;;;;;;;18.55;12.55;;;;;;;18.23;78.08;99596.44;5056647;28;20410;-74
2023/09/21 06:41:20;;;;;;;17.17;12.82;;;;;;;18.19;77.26;99593.22;5039467;28;20509;-73
2023/09/21 06:43:45;;;;;;;17.92;12.52;;;;;;;18.23;76.74;99593.75;5056570;28;20051;-74
2023/09/21 06:46:11;;;;;;;18.40;12.52;;;;;;;18.28;76.65;99584.19;5056559;28;20047;-73
2023/09/21 06:48:37;;;;;;;16.00;12.70;;;;;;;18.31;76.94;99583.84;5039486;28;20043;-73
2023/09/21 06:51:05;;;;;;;20.05;13.32;;;;;;;18.42;77.55;99588.94;5056332;28;20067;-73
2023/09/21 06:53:31;;;;;;;21.75;13.15;;;;;;;18.62;78.12;99600.41;5039532;28;20044;-73
2023/09/21 06:55:58;;;;;;;19.02;12.35;;;;;;;18.99;77.81;99597.31;5074434;28;20047;-73
2023/09/21 06:58:24;;;;;;;18.40;12.25;;;;;;;19.60;77.18;99606.94;5056355;28;20035;-74
2023/09/21 07:00:49;;;;;;;18.70;13.70;;;;;;;20.28;74.42;99584.88;5053130;28;20044;-74
2023/09/21 07:03:15;;;;;;;17.60;11.60;;;;;;;20.67;71.14;99579.53;5052532;28;20055;-75
2023/09/21 07:05:43;;;;;;;15.95;11.77;;;;;;;20.73;68.55;99611.34;5054453;28;20052;-73
2023/09/21 07:08:11;;;;;;;17.52;11.68;;;;;;;20.65;69.02;99585.13;5055993;28;20410;-73
2023/09/21 07:10:36;;;;;;;18.23;12.55;;;;;;;20.56;69.24;99575.34;5069763;28;20043;-73
2023/09/21 07:13:03;;;;;;;17.85;10.52;;;;;;;20.38;69.23;99590.97;5042989;28;20051;-75
2023/09/21 07:15:30;;;;;;;16.10;10.63;;;;;;;20.31;69.44;99584.56;5060067;28;20055;-75
2023/09/21 07:17:56;;;;;;;20.42;11.93;;;;;;;20.28;69.53;99583.03;5078244;28;20047;-75
2023/09/21 07:20:23;;;;;;;20.48;12.32;;;;;;;20.37;69.97;99586.59;5058987;28;20059;-75
2023/09/21 07:22:53;;;;;;;19.23;13.10;;;;;;;20.53;69.38;99585.69;5026456;28;20050;-76
2023/09/21 07:25:19;;;;;;;18.10;12.40;;;;;;;20.63;68.31;99579.06;5076846;28;20047;-78
2023/09/21 07:27:44;;;;;;;15.60;12.70;;;;;;;20.75;67.07;99576.81;5077568;28;20040;-76
2023/09/21 07:30:11;;;;;;;26.20;14.20;;;;;;;20.91;66.97;99592.13;5078060;28;20051;-76
2023/09/21 07:32:36;;;;;;;17.55;12.00;;;;;;;20.97;66.50;99580.59;5062022;28;20047;-77
2023/09/21 07:35:06;;;;;;;16.58;12.68;;;;;;;21.00;66.47;99574.78;5060272;28;20042;-73
2023/09/21 07:37:33;;;;;;;17.20;12.00;;;;;;;21.11;66.46;99585.22;5077492;28;20047;-74
2023/09/21 07:40:06;;;;;;;18.13;11.57;;;;;;;21.33;66.27;99575.50;5059981;28;20800;-74
2023/09/21 07:42:34;;;;;;;18.48;12.18;;;;;;;21.51;65.00;99580.59;5077496;28;20047;-74
2023/09/21 07:44:59;;;;;;;16.60;12.05;;;;;;;21.53;64.46;99598.41;5059349;28;20398;-74
2023/09/21 07:47:26;;;;;;;17.27;12.68;;;;;;;21.51;63.94;99572.47;5057751;28;20059;-73
2023/09/21 07:49:55;;;;;;;19.73;12.25;;;;;;;21.42;64.03;99581.69;5039440;28;20047;-74
2023/09/21 07:52:23;;;;;;;22.02;12.45;;;;;;;21.32;64.28;99580.06;5039260;28;20368;-75
2023/09/21 07:54:50;;;;;;;16.75;12.93;;;;;;;21.23;64.32;99574.84;5039636;28;20040;-74
2023/09/21 07:57:16;;;;;;;18.08;11.82;;;;;;;21.14;64.15;99584.03;5057373;28;20047;-75
2023/09/21 07:59:43;;;;;;;16.17;12.77;;;;;;;20.93;64.46;99585.50;5067783;28;20054;-75
2023/09/21 08:02:09;;;;;;;16.23;12.98;;;;;;;20.87;65.29;99596.22;5075966;28;20684;-75
2023/09/21 08:04:36;;;;;;;15.52;11.48;;;;;;;20.79;65.39;99593.53;5059888;28;20035;-74
2023/09/21 08:07:05;;;;;;;18.35;11.95;;;;;;;20.70;65.48;99572.91;5059456;28;20066;-74
2023/09/21 08:09:30;;;;;;;22.58;11.63;;;;;;;20.55;65.13;99587.19;5077242;28;20050;-75
2023/09/21 08:11:56;;;;;;;14.82;10.63;;;;;;;20.44;65.16;99590.28;5077290;28;20051;-75
2023/09/21 08:14:21;;;;;;;17.30;10.35;;;;;;;20.42;66.06;99613.16;5076900;28;20414;-74
2023/09/21 08:16:46;;;;;;;15.73;10.55;;;;;;;20.45;65.53;99553.22;5059064;28;20046;-74
2023/09/21 08:19:12;;;;;;;12.90;9.98;;;;;;;20.48;64.99;99597.03;5059166;28;20117;-75
2023/09/21 08:21:37;;;;;;;12.27;9.93;;;;;;;20.54;65.14;99600.94;5077160;28;20425;-75
2023/09/21 08:24:02;;;;;;;13.30;9.30;;;;;;;20.53;64.79;99600.09;5058546;28;20054;-75
2023/09/21 08:26:28;;;;;;;16.00;9.93;;;;;;;20.56;64.65;99599.72;5075332;28;20413;-74
2023/09/21 08:28:54;;;;;;;14.75;10.98;;;;;;;20.61;64.13;99612.75;5076857;28;20043;-74
2023/09/21 08:31:20;;;;;;;17.45;10.77;;;;;;;20.51;63.69;99612.09;5041853;28;20043;-74
2023/09/21 08:33:46;;;;;;;14.40;10.18;;;;;;;20.45;64.32;99618.19;5058777;28;20050;-74
2023/09/21 08:36:15;;;;;;;14.70;10.13;;;;;;;20.55;65.27;99613.44;5058400;28;20050;-74
2023/09/21 08:38:42;;;;;;;12.60;9.85;;;;;;;20.70;65.35;99600.84;5058488;28;20044;-73
2023/09/21 08:41:08;;;;;;;15.65;11.10;;;;;;;20.87;64.74;99615.19;5076602;28;20043;-74
2023/09/21 08:43:34;;;;;;;13.75;9.98;;;;;;;21.08;63.91;99611.88;5076398;28;20043;-74
2023/09/21 08:46:00;;;;;;;14.35;10.07;;;;;;;21.37;63.52;99618.31;5076506;28;20047;-74
2023/09/21 08:48:27;;;;;;;17.05;9.93;;;;;;;21.69;62.82;99619.13;5058478;28;20061;-74
2023/09/21 08:50:55;;;;;;;15.20;9.90;;;;;;;21.95;62.28;99635.03;5054846;28;20054;-74
2023/09/21 08:53:22;;;;;;;12.77;9.25;;;;;;;22.06;60.44;99621.88;5054804;28;20040;-76
2023/09/21 08:55:52;;;;;;;15.23;10.15;;;;;;;21.87;60.00;99616.09;5050664;28;20043;-76
2023/09/21 08:58:27;;;;;;;15.80;9.65;;;;;;;21.80;61.06;99632.25;5058669;28;20051;-76
2023/09/21 09:00:56;;;;;;;12.55;9.75;;;;;;;21.69;61.12;99624.53;5058611;28;20047;-74
2023/09/21 09:03:26;;;;;;;16.15;10.02;;;;;;;21.76;61.21;99605.69;5059247;28;20056;-74
2023/09/21 09:05:55;;;;;;;14.93;10.20;;;;;;;21.82;61.22;99630.22;5080243;28;20046;-74
2023/09/21 09:08:20;;;;;;;12.65;9.95;;;;;;;21.84;61.44;99628.16;5031865;28;20058;-74
2023/09/21 09:10:46;;;;;;;15.10;10.30;;;;;;;21.79;61.56;99629.72;5050385;28;20047;-75
2023/09/21 09:13:13;;;;;;;12.73;9.80;;;;;;;21.69;61.93;99635.41;5067270;28;20044;-74
2023/09/21 09:15:42;;;;;;;15.07;10.63;;;;;;;21.52;61.74;99637.41;5093860;28;20059;-73
2023/09/21 09:18:09;;;;;;;14.25;10.05;;;;;;;21.33;62.08;99635.97;5073465;28;20120;-73
2023/09/21 09:20:36;;;;;;;14.90;10.07;;;;;;;21.07;61.79;99659.81;5062251;28;20059;-73
2023/09/21 09:23:03;;;;;;;13.40;10.25;;;;;;;20.88;62.26;99641.28;5059903;28;20048;-72
2023/09/21 09:25:28;;;;;;;11.45;9.23;;;;;;;20.65;63.15;99647.41;5063553;28;20043;-72
2023/09/21 09:27:53;;;;;;;19.33;9.60;;;;;;;20.56;63.59;99643.06;5059997;28;20043;-74
2023/09/21 09:30:23;;;;;;;13.80;9.45;;;;;;;20.46;63.97;99647.81;5031899;28;20050;-73
2023/09/21 09:32:50;;;;;;;16.98;11.18;;;;;;;20.37;63.53;99638.03;5052572;28;20044;-73
2023/09/21 09:35:17;;;;;;;16.63;10.43;;;;;;;20.25;63.38;99640.22;5052227;28;20048;-76
2023/09/21 09:37:43;;;;;;;17.35;10.15;;;;;;;20.09;63.69;99628.56;5051769;28;20048;-72
2023/09/21 09:42:56;;;;;;;;;;;;;;;20.27;63.99;99648.16;5049375;28;20050;-73
2023/09/21 09:45:25;;;;;;;15.02;10.57;;;;;;;20.07;64.18;99641.44;5045219;28;19927;-74
2023/09/21 09:48:03;;;;;;;15.55;9.70;;;;;;;20.03;64.84;99678.81;5067395;28;20038;-75
2023/09/21 09:50:34;;;;;;;16.30;10.68;;;;;;;20.05;64.74;99659.69;5064692;28;20410;-76
2023/09/21 09:53:07;;;;;;;14.40;9.35;;;;;;;20.15;64.62;99660.38;5030491;28;20067;-75
2023/09/21 09:55:35;;;;;;;15.85;10.05;;;;;;;20.23;64.59;99650.38;5063040;28;20047;-76
2023/09/21 09:58:05;;;;;;;16.88;9.95;;;;;;;20.35;64.37;99683.38;5043199;28;20051;-76
2023/09/21 10:00:39;;;;;;;16.55;10.77;;;;;;;20.33;63.83;99673.69;5049907;28;20043;-74
2023/09/21 10:03:08;;;;;;;16.25;10.20;;;;;;;20.32;63.50;99656.59;5082467;28;20043;-76
2023/09/21 10:05:36;;;;;;;16.70;10.63;;;;;;;20.36;63.78;99649.03;5082163;28;20046;-75
2023/09/21 10:08:06;;;;;;;20.33;10.73;;;;;;;20.50;64.34;99659.16;5061683;28;20048;-74
2023/09/21 10:10:36;;;;;;;15.93;9.50;;;;;;;20.59;63.26;99656.25;5065544;28;20048;-76
2023/09/21 10:13:02;;;;;;;21.75;10.88;;;;;;;20.64;62.95;99655.75;5083043;28;20043;-74
2023/09/21 10:15:29;;;;;;;17.65;10.60;;;;;;;20.64;62.47;99666.59;5063987;28;20509;-75
2023/09/21 10:17:57;;;;;;;17.73;10.32;;;;;;;20.62;62.56;99663.19;5027950;28;20048;-76
2023/09/21 10:20:27;;;;;;;16.73;10.35;;;;;;;20.61;62.77;99665.06;5045539;28;20040;-73
2023/09/21 10:22:59;;;;;;;13.93;9.90;;;;;;;20.67;62.75;99683.31;5077889;28;20054;-74
2023/09/21 10:25:39;;;;;;;12.93;9.60;;;;;;;20.71;63.09;99661.31;5050716;28;20040;-74
2023/09/21 10:28:27;;;;;;;18.55;10.85;;;;;;;20.63;63.02;99667.59;5088092;28;20047;-73
2023/09/21 10:30:54;;;;;;;19.20;11.07;;;;;;;20.46;63.06;99664.06;5073381;28;20070;-77
2023/09/21 10:33:20;;;;;;;15.32;10.00;;;;;;;20.35;63.57;99626.53;5069367;28;20047;-75
2023/09/21 10:35:45;;;;;;;14.50;10.55;;;;;;;20.26;64.19;99665.44;5057830;28;20027;-76
2023/09/21 10:38:16;;;;;;;15.82;10.40;;;;;;;20.24;64.86;99664.75;5063930;28;20054;-77
2023/09/21 10:40:42;;;;;;;16.55;10.63;;;;;;;20.24;65.21;99660.19;5077584;28;20056;-75
2023/09/21 10:43:40;;;;;;;14.73;9.95;;;;;;;20.41;64.61;99668.31;5087011;28;20061;-76
2023/09/21 10:46:20;;;;;;;15.32;11.18;;;;;;;20.37;64.68;99670.53;4967599;28;20045;-76
2023/09/21 10:48:46;;;;;;;15.05;10.75;;;;;;;20.28;64.39;99620.09;4998003;28;20057;-77
2023/09/21 10:51:12;;;;;;;13.50;10.32;;;;;;;20.27;64.45;99681.50;4998288;28;20049;-76
2023/09/21 10:53:38;;;;;;;12.40;9.68;;;;;;;20.32;64.83;99678.25;4998606;28;20041;-76
2023/09/21 10:56:05;;;;;;;15.60;9.93;;;;;;;20.44;64.52;99655.25;4982654;28;20076;-76
2023/09/21 10:58:34;;;;;;;12.50;10.27;;;;;;;20.44;64.20;99660.69;4999576;28;20075;-75
2023/09/21 11:01:03;;;;;;;17.25;10.75;;;;;;;20.45;64.44;99662.38;4961014;28;20053;-74
2023/09/21 11:03:28;;;;;;;18.08;10.85;;;;;;;20.48;64.02;99662.03;4989291;28;20057;-76
2023/09/21 11:05:54;;;;;;;12.77;10.05;;;;;;;20.52;65.05;99657.97;4994802;28;20057;-76
2023/09/21 11:08:24;;;;;;;13.88;9.80;;;;;;;20.70;64.78;99656.91;4970445;28;20057;-75
2023/09/21 11:10:50;;;;;;;20.60;10.77;;;;;;;20.85;64.09;99658.72;4989078;28;20045;-77
2023/09/21 11:13:17;;;;;;;11.18;9.68;;;;;;;20.97;63.45;99653.78;4960309;28;20049;-75
2023/09/21 11:15:43;;;;;;;18.70;10.70;;;;;;;21.01;63.18;99609.84;4981193;28;20053;-76
2023/09/21 11:18:09;;;;;;;13.18;9.82;;;;;;;21.05;62.84;99637.47;4973891;28;20049;-77
2023/09/21 11:20:35;;;;;;;13.48;9.32;;;;;;;21.07;63.04;99661.69;4980891;28;20544;-75
2023/09/21 11:23:01;;;;;;;13.07;10.57;;;;;;;21.09;62.65;99665.06;5059451;28;20077;-75
2023/09/21 11:25:27;;;;;;;13.20;9.90;;;;;;;21.16;62.75;99660.63;5063074;28;20060;-76
2023/09/21 11:27:52;;;;;;;15.20;9.55;;;;;;;21.21;62.54;99659.13;5077335;28;20054;-74
2023/09/21 11:30:18;;;;;;;15.68;11.00;;;;;;;21.28;62.25;99660.09;5086982;28;20054;-75
2023/09/21 11:32:46;;;;;;;14.63;10.52;;;;;;;21.38;61.91;99666.13;5081149;28;20044;-76
2023/09/21 11:35:16;;;;;;;12.38;9.18;;;;;;;21.51;61.51;99664.69;5042304;28;20398;-77